This is the latest recevied weather packets stored in our database for station/object NM5PB-13. If no packets are shown the sender has not sent any weather packets the latest 10 day(s).
| Time | Temp. | Humidity | Pressure | Rain* | Wind** | Luminosity | Snow |
|---|---|---|---|---|---|---|---|
| 1777730066 | 8.89° C | 71% | 1020 hPa | 0 mm | - | - | - |
| 1777729162 | 7.78° C | 75% | 1020 hPa | 0 mm | - | - | - |
| 1777728257 | 6.67° C | 78% | 1020 hPa | 0 mm | - | - | - |
| 1777727352 | 5.56° C | 82% | 1020 hPa | 0 mm | - | - | - |
| 1777726439 | 3.89° C | 86% | 1020 hPa | 0 mm | - | - | - |
| 1777725524 | 2.22° C | 92% | 1020 hPa | 0 mm | - | - | - |
| 1777724607 | 1.11° C | 94% | 1020 hPa | 0 mm | - | - | - |
| 1777723704 | 0° C | 94% | 1020 hPa | 0 mm | - | - | - |
| 1777722793 | -0.56° C | 94% | 1020 hPa | 0 mm | - | - | - |
| 1777721880 | -0.56° C | 94% | 1020 hPa | 0 mm | - | - | - |
| 1777720964 | -0.56° C | 94% | 1020 hPa | 0 mm | - | - | - |
| 1777720048 | -0.56° C | 93% | 1020 hPa | 0 mm | - | - | - |
| 1777719142 | -0.56° C | 93% | 1020 hPa | 0 mm | - | - | - |
| 1777718234 | -0.56° C | 93% | 1019 hPa | 0 mm | - | - | - |
| 1777717323 | -0.56° C | 93% | 1019 hPa | 0 mm | - | - | - |
| 1777716420 | -0.56° C | 92% | 1019 hPa | 0 mm | - | - | - |
| 1777715514 | 0° C | 91% | 1019 hPa | 0 mm | - | - | - |
| 1777714612 | 0° C | 91% | 1019 hPa | 0 mm | - | - | - |
| 1777713708 | 0° C | 91% | 1019 hPa | 0 mm | - | - | - |
| 1777712803 | 0° C | 90% | 1019 hPa | 0 mm | - | - | - |
| 1777711900 | 0.56° C | 89% | 1019 hPa | 0 mm | - | - | - |
| 1777710994 | 0.56° C | 87% | 1019 hPa | 0 mm | - | - | - |
| 1777710089 | 1.11° C | 87% | 1019 hPa | 0 mm | - | - | - |
| 1777709186 | 1.11° C | 85% | 1019 hPa | 0 mm | - | - | - |
| 1777708283 | 1.67° C | 83% | 1019 hPa | 0 mm | - | - | - |
* Rain latest hour (hover to see other rain measurements)
** Current wind speed in m/s (hover to see current wind gust speed)